Airfield :
LOGIN :

Register | Disclaimer

   EN    FR    IT 

 










Legend :    VFR   Marginal VFR   IFR   Intensive IFR   Very Intensive IFR
Visi :
Ceiling :
>= 8 km
>= 3000ft
5 to 8 km
1000 to 3000 ft
1500m to 5 km
500 to 1000 ft
800 to 1500m
200 to 500 ft
< 800m
< 200 ft
Symbols :   Thunderstorms  Fog  Heavy snow  Heavy precipitations  Wind > 20 kt
SIGMETs :     Misc.  Thunderstorms  Icing  Turbulence  Mountain Waves  Volcanic Ashes







- Airport Elevation : 297 ft
- IATA code : ODB


LEBA - Córdoba

CURRENT METAR :
  • 221830Z AUTO 31001KT 9999 NCD 26/06 Q1015

EXPIRED METARs :
  • 221800Z 31002KT CAVOK 28/06 Q1014
  • 221730Z 27003KT 240V300 CAVOK 30/06 Q1014
  • 221700Z 28004KT 210V340 CAVOK 31/06 Q1014
  • 221630Z 30005KT 250V350 CAVOK 31/07 Q1014
  • 221600Z 26003KT 9999 FEW035 32/07 Q1014
  • 221530Z 28004KT 220V350 9999 FEW035 31/07 Q1014

TAF TAF LEBA
Valid from the 22 at 18:00 until the 23 at 03:00 UTC


221700Z 2218/2303 27006KT CAVOK
No reported NOTAMs for that airfield.
1 SIGMET reported for the Madrid FIR (LECM) :
 
Embedded thunderstorms
LECM SIGMET 8 VALID 221800/222000 LEVA
LECM MADRID FIR/UIR EMBD TS FCST WI N4010 W00310 - N4120 W00230 - N41 W001 - N40 W00050 - N4010 W00310 TOP FL360 MOV E 15KT NC=



MET'MAP, your aeronautical weather chart ! - Copyright ORBIFLY December 2007 - Disclaimer

ORBIFLY MET'MAP TEAM :

Programming & Development : Alexandra Zaïnal
Concept & Development : Baudouin d'Aumeries
Co-Development & Prog : Marc-Olivier Méhu
Technical & hardware support : Manuel Goepfert

Contact : metmap@orbifly.com




SOURCES & CREDITS :

   NOAA